Time;durP1;ratioP1;P1;durP2;ratioP2;P2;SDS_P1;SDS_P2;PMS_P1;PMS_P2;Temp;Humidity;BMP_temperature;BMP_pressure;BME280_temperature;BME280_humidity;BME280_pressure;Samples;Min_cycle;Max_cycle;Signal;HPM_P1;HPM_P2
2023/01/17 00:01:39;;;;;;;1.50;0.80;;;1.20;99.90;;;0.04;100.00;94494.13;5022080;28;20159;-35
2023/01/17 00:09:51;;;;;;;2.25;0.75;;;0.80;99.90;;;-0.22;100.00;94501.22;5025642;28;20109;-36
2023/01/17 00:12:21;;;;;;;1.08;0.80;;;0.70;99.90;;;-0.25;100.00;94501.38;5030836;22;20053;-45
2023/01/17 00:14:47;;;;;;;1.77;0.90;;;0.70;99.90;;;-0.19;100.00;94502.84;5012522;28;20021;-45
2023/01/17 00:17:13;;;;;;;1.13;0.80;;;0.80;99.90;;;-0.20;100.00;94502.03;5005953;28;20034;-43
2023/01/17 01:35:21;;;;;;;4.90;1.02;;;0.60;99.90;;;-0.37;100.00;94587.31;5010359;28;20072;-43
2023/01/17 01:37:47;;;;;;;1.67;0.90;;;0.60;99.90;;;-0.54;100.00;94561.22;5006207;28;20040;-45
2023/01/17 01:40:14;;;;;;;1.80;1.20;;;0.60;99.90;;;-0.45;100.00;94587.63;5008082;28;20049;-47
2023/01/17 01:42:58;;;;;;;4.72;1.23;;;0.60;99.90;;;-0.40;100.00;94584.81;5011754;28;20029;-48
2023/01/17 01:45:27;;;;;;;3.33;1.20;;;0.60;99.90;;;-0.31;100.00;94583.63;5010144;28;20486;-47
2023/01/17 01:48:00;;;;;;;2.53;1.17;;;0.70;99.90;;;-0.21;100.00;94580.59;5007494;28;20393;-45
2023/01/17 01:50:29;;;;;;;2.17;0.98;;;0.80;99.90;;;-0.14;100.00;94577.75;4996083;28;20068;-45
2023/01/17 01:52:59;;;;;;;2.42;1.10;;;0.80;99.90;;;-0.07;100.00;94581.78;4993020;28;20561;-45
2023/01/17 01:55:32;;;;;;;4.15;1.27;;;0.90;99.90;;;0.00;100.00;94583.25;5008076;28;20044;-45
2023/01/17 01:58:05;;;;;;;3.65;1.35;;;1.00;99.90;;;0.03;100.00;94585.69;5008306;28;20026;-43
2023/01/17 02:00:37;;;;;;;1.85;1.13;;;1.00;99.90;;;0.08;100.00;94585.53;4991650;28;20037;-47
2023/01/17 02:03:17;;;;;;;2.27;1.00;;;1.10;99.90;;;0.12;100.00;94593.09;5009036;28;20022;-44
2023/01/17 02:05:43;;;;;;;1.73;1.00;;;1.10;99.90;;;0.15;100.00;94582.59;4992542;28;20358;-43
2023/01/17 02:08:16;;;;;;;2.88;1.35;;;1.20;99.90;;;0.18;100.00;94579.91;5011445;28;20056;-47
2023/01/17 02:10:43;;;;;;;3.72;1.33;;;1.20;99.90;;;0.21;100.00;94581.50;4971932;28;20045;-44
2023/01/17 02:13:10;;;;;;;2.28;1.40;;;1.20;99.90;;;0.25;100.00;94585.69;5009205;28;20029;-45
2023/01/17 02:15:48;;;;;;;2.90;1.08;;;1.20;99.90;;;0.21;100.00;94573.72;5007404;28;20432;-44
2023/01/17 02:18:36;;;;;;;1.92;1.10;;;1.30;99.90;;;0.30;100.00;94585.47;5006756;28;20316;-45
2023/01/17 02:21:18;;;;;;;1.77;0.93;;;1.30;99.90;;;0.33;100.00;94585.34;5003407;28;20060;-46
2023/01/17 02:24:19;;;;;;;1.90;1.10;;;1.30;99.90;;;0.34;100.00;94577.50;5011065;28;20064;-45
2023/01/17 02:27:20;;;;;;;1.60;1.10;;;1.30;99.90;;;0.38;100.00;94578.22;5009265;28;20042;-44
2023/01/17 02:30:11;;;;;;;2.50;1.00;;;1.30;99.90;;;0.38;100.00;94579.06;4989886;28;20057;-47
2023/01/17 02:33:04;;;;;;;1.23;1.00;;;1.40;99.90;;;0.40;100.00;94583.34;5005840;28;20305;-45
2023/01/17 02:35:46;;;;;;;1.02;0.80;;;1.40;99.90;;;0.41;100.00;94591.03;4991000;28;20045;-47
2023/01/17 02:38:57;;;;;;;1.88;1.00;;;1.40;99.90;;;0.40;100.00;94584.19;5007819;28;20105;-47
2023/01/17 02:41:46;;;;;;;1.70;1.00;;;1.40;99.90;;;0.42;100.00;94581.53;5007499;28;20028;-47
2023/01/17 02:44:17;;;;;;;1.38;0.98;;;1.40;99.90;;;0.41;100.00;94578.06;4991266;28;20068;-48
2023/01/17 02:46:45;;;;;;;2.35;1.25;;;1.40;99.90;;;0.41;100.00;94583.25;5011135;28;20298;-47
2023/01/17 02:49:12;;;;;;;1.23;0.80;;;1.40;99.90;;;0.38;100.00;94581.66;5005019;28;20065;-46
2023/01/17 02:52:11;;;;;;;3.13;1.00;;;1.40;99.90;;;0.42;100.00;94579.78;4985910;28;20037;-48
2023/01/17 02:55:11;;;;;;;1.00;0.90;;;1.40;99.90;;;0.44;100.00;94571.94;4989731;28;20030;-43
2023/01/17 02:58:19;;;;;;;1.58;0.93;;;1.40;99.90;;;0.42;100.00;94572.00;4993127;28;20263;-45
2023/01/17 03:01:26;;;;;;;2.72;0.95;;;1.40;99.90;;;0.46;100.00;94576.13;5008885;28;20033;-46
2023/01/17 03:04:13;;;;;;;1.05;0.80;;;1.40;99.90;;;0.46;100.00;94565.75;4991975;28;20037;-46
2023/01/17 03:06:51;;;;;;;2.20;0.90;;;1.40;99.90;;;0.50;100.00;94566.47;5007375;28;20064;-44
2023/01/17 03:09:18;;;;;;;1.10;0.82;;;1.40;99.90;;;0.48;100.00;94558.75;5006568;28;20025;-44
2023/01/17 03:11:45;;;;;;;1.60;0.85;;;1.40;99.90;;;0.49;100.00;94572.59;4996906;28;20460;-45
2023/01/17 03:14:11;;;;;;;3.00;1.00;;;1.40;99.90;;;0.49;100.00;94570.81;5009116;28;20030;-44
2023/01/17 03:16:37;;;;;;;1.27;1.08;;;1.40;99.90;;;0.51;100.00;94558.63;5010871;28;20037;-48
2023/01/17 03:19:02;;;;;;;1.45;0.90;;;1.40;99.90;;;0.53;100.00;94572.38;4988420;28;20381;-44
2023/01/17 03:21:28;;;;;;;1.45;0.90;;;1.50;99.90;;;0.52;100.00;94565.53;5011424;28;20034;-45
2023/01/17 03:23:54;;;;;;;1.40;0.80;;;1.50;99.90;;;0.57;100.00;94568.75;5009420;28;20083;-46
2023/01/17 03:26:20;;;;;;;1.08;0.68;;;1.50;99.90;;;0.62;100.00;94580.69;5008947;28;20204;-46
2023/01/17 03:28:45;;;;;;;2.13;0.90;;;1.60;99.90;;;0.61;100.00;94578.97;5013294;28;20029;-46
2023/01/17 03:31:16;;;;;;;1.45;0.90;;;1.60;99.90;;;0.65;100.00;94590.94;5002762;28;20065;-47
2023/01/17 03:33:42;;;;;;;3.38;0.70;;;1.60;99.90;;;0.65;100.00;94596.94;5006777;28;20025;-44
2023/01/17 03:36:07;;;;;;;1.30;0.98;;;1.60;99.90;;;0.65;100.00;94596.94;5011786;28;20362;-47
2023/01/17 03:38:33;;;;;;;1.52;1.02;;;1.60;99.90;;;0.60;100.00;94606.66;4985146;28;20396;-46
2023/01/17 03:40:59;;;;;;;1.17;0.80;;;1.60;99.90;;;0.53;100.00;94611.25;5010364;28;20048;-44
2023/01/17 03:43:24;;;;;;;2.10;1.00;;;1.50;99.90;;;0.45;100.00;94615.94;5008120;28;20036;-47
2023/01/17 03:45:53;;;;;;;1.98;1.00;;;1.50;99.90;;;0.34;100.00;94613.81;5009569;28;20057;-48
2023/01/17 03:48:20;;;;;;;1.60;0.70;;;1.40;99.90;;;0.29;100.00;94625.28;5013297;28;20124;-46
2023/01/17 03:50:50;;;;;;;1.75;0.65;;;1.30;99.90;;;0.21;100.00;94622.13;5011058;28;20535;-45
2023/01/17 03:53:15;;;;;;;1.25;0.80;;;1.30;99.90;;;0.02;100.00;94617.72;5005029;28;20616;-44
2023/01/17 03:55:44;;;;;;;1.63;0.60;;;1.10;99.90;;;-0.12;100.00;94600.13;5014503;28;20136;-44
2023/01/17 03:58:10;;;;;;;2.35;0.77;;;1.10;99.90;;;-0.10;100.00;94618.19;5010692;28;20029;-42
2023/01/17 04:00:36;;;;;;;1.35;0.80;;;1.00;99.90;;;-0.14;100.00;94609.72;5008295;28;20077;-45
2023/01/17 04:03:02;;;;;;;0.95;0.68;;;0.90;99.90;;;-0.18;100.00;94596.94;5014340;28;20029;-48
2023/01/17 04:05:27;;;;;;;2.80;0.60;;;0.90;99.90;;;-0.25;100.00;94596.31;5010887;28;20806;-47
2023/01/17 04:07:53;;;;;;;1.05;0.95;;;0.80;99.90;;;-0.30;100.00;94587.91;5015147;28;20515;-44
2023/01/17 04:10:19;;;;;;;1.63;0.80;;;0.70;99.90;;;-0.36;100.00;94586.38;5009520;28;20111;-45
2023/01/17 04:12:44;;;;;;;3.40;0.80;;;0.70;99.90;;;-0.40;100.00;94584.81;5010333;28;20083;-44
2023/01/17 04:15:11;;;;;;;0.70;0.70;;;0.60;99.90;;;-0.42;100.00;94594.41;5005902;28;20037;-47
2023/01/17 04:17:36;;;;;;;1.38;0.85;;;0.60;99.90;;;-0.43;100.00;94592.72;5005559;28;20029;-44
2023/01/17 04:20:03;;;;;;;0.70;0.70;;;0.60;99.90;;;-0.42;100.00;94595.25;4988976;28;20760;-47
2023/01/17 04:22:30;;;;;;;1.02;0.70;;;0.60;99.90;;;-0.44;100.00;94594.47;5002263;28;20025;-46
2023/01/17 04:24:57;;;;;;;1.00;0.75;;;0.50;99.90;;;-0.47;100.00;94593.72;5009246;28;20040;-45
2023/01/17 04:27:23;;;;;;;0.73;0.60;;;0.50;99.90;;;-0.62;100.00;94575.31;5008215;28;20037;-46
2023/01/17 04:29:48;;;;;;;0.90;0.80;;;0.50;99.90;;;-0.52;100.00;94591.34;5005631;28;20068;-45
2023/01/17 04:32:14;;;;;;;1.13;0.82;;;0.50;99.90;;;-0.50;100.00;94589.53;5006844;28;20037;-42
2023/01/17 04:34:40;;;;;;;0.85;0.70;;;0.50;99.90;;;-0.47;100.00;94588.56;5003029;28;20033;-45
2023/01/17 04:37:06;;;;;;;1.98;1.00;;;0.50;99.90;;;-0.40;100.00;94593.44;5008715;28;20048;-44
2023/01/17 04:39:31;;;;;;;1.42;0.90;;;0.60;99.90;;;-0.36;100.00;94594.16;5006248;28;20040;-43
2023/01/17 04:41:57;;;;;;;3.38;0.90;;;0.60;99.90;;;-0.29;100.00;94594.75;5005008;28;20037;-44
2023/01/17 04:44:23;;;;;;;1.15;0.95;;;0.70;99.90;;;-0.26;100.00;94600.66;5008639;28;20145;-43
2023/01/17 04:46:49;;;;;;;2.00;1.10;;;0.70;99.90;;;-0.20;100.00;94604.75;5008242;28;20045;-44
2023/01/17 04:49:14;;;;;;;1.05;0.90;;;0.80;99.90;;;-0.16;100.00;94615.84;5007225;28;20022;-46
2023/01/17 04:51:40;;;;;;;1.10;0.93;;;0.80;99.90;;;-0.11;100.00;94608.72;5007561;28;20086;-44
2023/01/17 04:54:06;;;;;;;1.75;1.20;;;0.80;99.90;;;-0.10;100.00;94618.19;5012004;28;20041;-42
2023/01/17 04:56:31;;;;;;;1.48;1.00;;;0.90;99.90;;;-0.09;100.00;94612.97;5008241;28;20756;-43
2023/01/17 04:58:57;;;;;;;1.20;1.02;;;0.90;99.90;;;-0.07;100.00;94615.47;5008281;28;20041;-43
2023/01/17 05:01:23;;;;;;;3.58;1.15;;;0.90;99.90;;;-0.05;100.00;94616.28;5001362;28;20501;-43
2023/01/17 05:03:48;;;;;;;4.45;1.20;;;0.90;99.90;;;-0.08;100.00;94604.28;5001338;28;20037;-51
2023/01/17 05:06:15;;;;;;;2.60;1.27;;;0.90;99.90;;;-0.09;100.00;94612.09;5005347;28;20399;-44
2023/01/17 05:08:40;;;;;;;4.03;1.17;;;0.90;99.90;;;-0.10;100.00;94618.19;5013661;28;20026;-43
2023/01/17 05:11:06;;;;;;;1.75;1.15;;;0.90;99.90;;;-0.11;100.00;94617.34;5008740;28;20045;-43
2023/01/17 05:13:32;;;;;;;1.77;1.08;;;0.90;99.90;;;-0.16;100.00;94615.84;5007555;28;20048;-44
2023/01/17 05:15:58;;;;;;;1.38;1.08;;;0.80;99.90;;;-0.26;100.00;94612.78;5009551;28;20033;-43
2023/01/17 05:18:24;;;;;;;1.70;1.25;;;0.70;99.90;;;-0.45;100.00;94602.28;5012304;28;20684;-43
2023/01/17 05:20:50;;;;;;;2.85;1.50;;;0.60;99.90;;;-0.48;100.00;94611.03;4991384;28;20445;-43
2023/01/17 05:23:16;;;;;;;1.38;0.98;;;0.50;99.90;;;-0.56;100.00;94609.63;4997410;28;20308;-43
2023/01/17 05:25:43;;;;;;;1.50;0.98;;;0.40;99.90;;;-0.67;100.00;94599.69;5006244;28;20035;-43
2023/01/17 05:28:10;;;;;;;1.75;1.10;;;0.30;99.90;;;-0.75;100.00;94592.22;5008145;28;20033;-43
2023/01/17 05:30:36;;;;;;;1.10;1.00;;;0.30;99.90;;;-0.78;100.00;94598.31;5008113;28;20490;-42
2023/01/17 05:33:02;;;;;;;5.65;1.10;;;0.20;99.90;;;-0.82;100.00;94596.78;5003556;28;20076;-46
2023/01/17 05:35:33;;;;;;;2.42;1.27;;;0.20;99.90;;;-0.90;100.00;94592.78;4998135;28;20026;-43
2023/01/17 05:37:59;;;;;;;1.30;1.02;;;0.10;99.90;;;-0.95;100.00;94587.78;5006049;28;20392;-43
2023/01/17 05:40:29;;;;;;;2.20;1.00;;;0.00;99.90;;;-1.00;100.00;94587.13;5012522;28;20034;-47
2023/01/17 05:42:58;;;;;;;3.38;1.20;;;0.00;99.90;;;-1.07;100.00;94591.66;5004385;28;20214;-46
2023/01/17 05:45:27;;;;;;;1.42;1.13;;;0.00;99.90;;;-1.12;100.00;94595.31;4997727;28;20082;-42
2023/01/17 05:47:54;;;;;;;3.97;1.77;;;-0.10;99.90;;;-1.24;100.00;94578.47;5005617;28;20036;-44
2023/01/17 05:50:24;;;;;;;2.58;1.52;;;-0.10;99.90;;;-1.18;100.00;94589.47;4999713;28;20037;-45
2023/01/17 05:52:59;;;;;;;3.40;1.25;;;-0.20;99.90;;;-1.23;100.00;94582.78;5002379;28;20026;-47
2023/01/17 05:55:27;;;;;;;1.38;1.20;;;-0.20;99.90;;;-1.25;100.00;94580.25;5006431;28;20191;-48
2023/01/17 05:57:53;;;;;;;6.95;1.60;;;-0.20;99.90;;;-1.15;100.00;94578.16;5010048;28;20740;-47
2023/01/17 06:00:20;;;;;;;6.53;1.90;;;-0.20;99.90;;;-1.17;100.00;94575.66;5006429;28;20041;-47
2023/01/17 06:02:46;;;;;;;6.43;1.88;;;-0.20;99.90;;;-1.23;100.00;94564.66;4989180;28;20036;-47
2023/01/17 06:05:13;;;;;;;3.55;1.48;;;-0.20;99.90;;;-1.24;100.00;94566.41;4996631;28;20172;-47
2023/01/17 06:07:39;;;;;;;4.85;1.70;;;-0.20;99.90;;;-1.30;100.00;94563.22;4999639;28;20034;-47
2023/01/17 06:10:05;;;;;;;4.22;1.70;;;-0.20;99.90;;;-1.36;100.00;94554.78;5009762;28;20255;-47
2023/01/17 06:12:31;;;;;;;2.53;1.50;;;-0.30;99.90;;;-1.37;100.00;94547.06;5036158;22;20087;-36
2023/01/17 06:14:56;;;;;;;5.50;1.45;;;-0.30;99.90;;;-1.40;100.00;94552.34;5020931;28;21906;-36
2023/01/17 06:17:22;;;;;;;2.97;1.33;;;-0.40;99.90;;;-1.45;100.00;94549.94;5019887;28;20431;-36
2023/01/17 06:19:48;;;;;;;4.60;1.60;;;-0.40;99.90;;;-1.55;100.00;94533.06;5018124;28;20033;-36
2023/01/17 06:22:13;;;;;;;4.53;1.65;;;-0.40;99.90;;;-1.60;100.00;94522.91;5027180;28;20044;-36
2023/01/17 06:24:39;;;;;;;2.13;1.25;;;-0.50;99.90;;;-1.61;100.00;94525.53;5019793;28;20032;-36
2023/01/17 06:27:08;;;;;;;3.33;1.88;;;-0.50;99.90;;;-1.60;100.00;94540.13;5017647;28;20116;-36
2023/01/17 06:29:34;;;;;;;4.68;1.67;;;-0.50;99.90;;;-1.65;100.00;94534.28;5024053;28;20056;-37
2023/01/17 06:32:00;;;;;;;5.30;1.40;;;-0.50;99.90;;;-1.69;100.00;94522.38;5023773;28;20515;-37
2023/01/17 06:34:26;;;;;;;4.28;1.65;;;-0.60;99.90;;;-1.66;100.00;94530.84;5016337;28;20039;-37
2023/01/17 06:36:52;;;;;;;7.13;2.00;;;-0.60;99.90;;;-1.70;100.00;94525.88;5018145;28;20104;-37
2023/01/17 06:39:18;;;;;;;4.70;1.60;;;-0.60;99.90;;;-1.69;100.00;94523.19;5016481;28;20043;-37
2023/01/17 06:41:43;;;;;;;3.50;1.25;;;-0.60;99.90;;;-1.72;100.00;94528.50;5024680;28;20049;-37
2023/01/17 06:44:09;;;;;;;1.63;1.38;;;-0.60;99.90;;;-1.71;100.00;94526.75;5025009;28;20448;-37
2023/01/17 06:46:35;;;;;;;4.53;1.55;;;-0.60;99.90;;;-1.89;100.00;94511.00;5021732;28;20036;-37
2023/01/17 06:49:00;;;;;;;5.13;1.48;;;-0.60;99.90;;;-1.72;100.00;94544.00;5032773;28;20037;-37
2023/01/17 06:51:26;;;;;;;2.80;1.40;;;-0.60;99.90;;;-1.80;100.00;94527.91;5019153;28;20566;-37
2023/01/17 06:53:52;;;;;;;2.55;1.40;;;-0.70;99.90;;;-1.94;100.00;94507.72;5025920;28;20476;-37
2023/01/17 06:56:19;;;;;;;4.75;1.23;;;-0.70;99.90;;;-1.77;100.00;94541.56;5024021;28;20029;-37
2023/01/17 06:58:49;;;;;;;2.78;1.42;;;-0.70;99.90;;;-1.80;100.00;94539.09;5025459;28;20037;-37
2023/01/17 07:01:16;;;;;;;4.50;1.40;;;-0.70;99.90;;;-1.71;100.00;94548.25;5017579;28;20029;-37
2023/01/17 07:03:42;;;;;;;5.38;1.50;;;-0.70;99.90;;;-1.87;100.00;94511.78;5017298;28;20064;-37
2023/01/17 07:06:08;;;;;;;1.73;1.30;;;-0.70;99.90;;;-1.64;100.00;94536.81;5015520;28;20550;-37
2023/01/17 07:08:35;;;;;;;7.82;1.50;;;-0.60;99.90;;;-1.55;100.00;94535.66;5024611;28;20131;-37
2023/01/17 07:11:06;;;;;;;2.92;1.50;;;-0.60;99.90;;;-1.46;100.00;94530.13;5021173;28;20251;-37
2023/01/17 07:13:39;;;;;;;3.10;1.25;;;-0.50;99.90;;;-1.39;100.00;94530.78;5022834;28;20044;-37
2023/01/17 07:16:06;;;;;;;2.45;1.17;;;-0.40;99.90;;;-1.38;100.00;94524.72;5029577;28;20071;-37
2023/01/17 07:18:33;;;;;;;2.20;1.30;;;-0.40;99.90;;;-1.33;100.00;94525.38;5028889;28;20081;-37
2023/01/17 07:20:59;;;;;;;1.88;1.10;;;-0.30;99.90;;;-1.28;100.00;94530.38;5027528;28;20036;-36
2023/01/17 07:23:25;;;;;;;2.03;1.23;;;-0.30;99.90;;;-1.21;100.00;94524.09;5024978;28;20057;-36
2023/01/17 07:25:59;;;;;;;3.35;1.17;;;-0.20;99.90;;;-1.09;100.00;94525.38;5024208;28;20033;-36
2023/01/17 07:28:26;;;;;;;5.07;1.00;;;-0.20;99.90;;;-1.04;100.00;94515.69;5032135;28;20056;-36
2023/01/17 07:30:52;;;;;;;2.90;1.20;;;0.00;99.90;;;-0.90;100.00;94516.00;5029468;28;20028;-37
2023/01/17 07:33:19;;;;;;;2.83;0.93;;;0.10;99.90;;;-0.86;100.00;94511.53;5029012;28;20078;-37
2023/01/17 07:35:45;;;;;;;1.83;1.15;;;0.10;99.90;;;-0.81;100.00;94502.72;5025730;28;20963;-36
2023/01/17 07:38:17;;;;;;;1.58;1.20;;;0.10;99.90;;;-0.84;100.00;94497.66;5028016;28;20056;-36
2023/01/17 07:40:44;;;;;;;2.35;1.40;;;0.10;99.90;;;-0.89;100.00;94496.16;5030724;28;20036;-36
2023/01/17 07:43:13;;;;;;;2.15;1.30;;;0.10;99.90;;;-0.99;100.00;94487.91;5034031;28;20036;-36
2023/01/17 07:45:44;;;;;;;2.40;1.30;;;0.00;99.90;;;-1.06;100.00;94500.25;5014836;28;20029;-36
2023/01/17 07:48:11;;;;;;;1.95;1.17;;;-0.10;99.90;;;-1.11;100.00;94494.41;5028234;28;20052;-36
2023/01/17 07:50:37;;;;;;;2.10;1.10;;;-0.10;99.90;;;-1.12;100.00;94497.03;5031388;28;20029;-36
2023/01/17 07:53:04;;;;;;;3.42;1.50;;;-0.20;99.90;;;-1.18;100.00;94496.38;5030936;28;20024;-36
2023/01/17 07:55:30;;;;;;;2.03;1.45;;;-0.20;99.90;;;-1.20;100.00;94497.34;5024248;28;20530;-36
2023/01/17 07:57:56;;;;;;;2.25;1.27;;;-0.20;99.90;;;-1.22;100.00;94493.94;5029522;28;20033;-36
2023/01/17 08:00:24;;;;;;;1.83;1.40;;;-0.20;99.90;;;-1.22;100.00;94488.78;5026791;28;20467;-36
2023/01/17 08:02:55;;;;;;;2.20;1.30;;;-0.20;99.90;;;-1.17;100.00;94504.97;5029062;28;20361;-36
2023/01/17 08:05:22;;;;;;;1.63;1.33;;;-0.20;99.90;;;-1.14;100.00;94501.44;5025516;28;20029;-36
2023/01/17 08:07:47;;;;;;;2.97;1.52;;;-0.20;99.90;;;-1.09;100.00;94495.19;5029374;28;20044;-34
2023/01/17 08:10:16;;;;;;;3.25;1.48;;;-0.20;99.90;;;-1.02;100.00;94488.03;5032392;28;20611;-35
2023/01/17 08:12:44;;;;;;;4.65;1.92;;;-0.10;99.90;;;-0.96;100.00;94493.81;5033045;28;20040;-36
2023/01/17 08:15:10;;;;;;;3.63;1.90;;;0.00;99.90;;;-0.89;100.00;94496.16;5034254;28;20025;-36
2023/01/17 08:17:36;;;;;;;5.72;2.20;;;0.10;99.90;;;-0.81;100.00;94496.69;5030953;28;20021;-36
2023/01/17 08:20:02;;;;;;;4.13;2.05;;;0.10;99.90;;;-0.70;100.00;94504.91;5032935;28;20029;-36
2023/01/17 08:22:29;;;;;;;5.28;2.00;;;0.20;99.90;;;-0.58;100.00;94501.81;5027668;28;20746;-36
2023/01/17 08:24:55;;;;;;;4.07;1.92;;;0.30;99.90;;;-0.46;100.00;94497.91;5033404;28;20091;-36
2023/01/17 08:27:21;;;;;;;3.25;1.90;;;0.40;99.90;;;-0.39;100.00;94478.63;5030872;28;20033;-36
2023/01/17 08:29:47;;;;;;;4.70;1.73;;;0.60;99.90;;;-0.24;100.00;94484.91;5037813;28;20048;-36
2023/01/17 08:32:14;;;;;;;2.75;1.85;;;0.70;99.90;;;-0.12;100.00;94485.31;5038771;28;20068;-36
2023/01/17 08:34:40;;;;;;;3.38;1.60;;;0.80;99.90;;;-0.02;100.00;94494.38;5031254;28;20411;-36
2023/01/17 08:37:06;;;;;;;3.20;1.83;;;0.90;99.90;;;0.07;100.00;94486.22;5037167;28;20056;-36
2023/01/17 08:39:32;;;;;;;2.55;1.70;;;1.00;99.90;;;0.16;100.00;94484.97;5038813;28;20052;-37
2023/01/17 08:41:57;;;;;;;3.70;1.80;;;1.10;99.90;;;0.25;100.00;94489.78;5028285;28;20029;-36
2023/01/17 08:44:23;;;;;;;6.47;1.90;;;1.20;99.90;;;0.29;100.00;94483.56;5034713;28;20029;-36
2023/01/17 08:46:49;;;;;;;5.15;2.00;;;1.20;99.90;;;0.36;100.00;94492.75;5026622;28;20041;-37
2023/01/17 08:49:15;;;;;;;4.93;2.20;;;1.30;99.90;;;0.44;100.00;94488.97;5021746;28;20530;-36
2023/01/17 08:51:40;;;;;;;4.22;1.80;;;1.30;99.90;;;0.48;100.00;94485.34;5022470;28;21496;-36
2023/01/17 08:54:08;;;;;;;4.68;2.05;;;1.40;99.90;;;0.51;100.00;94491.22;5028119;28;20116;-36
2023/01/17 08:56:34;;;;;;;4.43;2.90;;;1.40;99.90;;;0.56;100.00;94486.69;5035319;28;20036;-37
2023/01/17 08:59:01;;;;;;;15.02;2.60;;;1.50;99.90;;;0.62;100.00;94475.19;5032703;28;20038;-37
2023/01/17 09:01:27;;;;;;;7.72;2.80;;;1.50;99.90;;;0.64;100.00;94473.34;5026219;28;20112;-37
2023/01/17 09:03:53;;;;;;;11.57;2.38;;;1.60;99.90;;;0.75;100.00;94470.28;5024351;28;20391;-36
2023/01/17 09:06:19;;;;;;;8.77;2.78;;;1.60;99.90;;;0.83;100.00;94481.16;5037774;28;20400;-37
2023/01/17 09:08:45;;;;;;;4.75;2.25;;;1.70;99.90;;;0.88;100.00;94473.16;5034776;28;20574;-36
2023/01/17 09:11:14;;;;;;;6.55;2.72;;;1.80;99.90;;;0.89;100.00;94474.84;5035547;28;20468;-36
2023/01/17 09:13:40;;;;;;;5.57;2.28;;;1.80;99.90;;;0.88;100.00;94474.03;5031588;28;20522;-36
2023/01/17 09:16:07;;;;;;;9.93;2.30;;;1.80;99.90;;;0.91;100.00;94473.03;5030927;28;20029;-36
2023/01/17 09:18:34;;;;;;;5.00;2.05;;;1.80;99.90;;;0.90;100.00;94477.38;5029658;28;20029;-36
2023/01/17 09:21:17;;;;;;;4.15;1.95;;;1.80;99.90;;;0.90;100.00;94471.34;5030564;28;20998;-36
2023/01/17 09:23:44;;;;;;;9.75;2.42;;;1.80;99.90;;;0.87;100.00;94472.31;5035744;28;20297;-36
2023/01/17 09:26:26;;;;;;;6.05;2.35;;;1.80;99.90;;;0.85;100.00;94463.78;5030993;28;20036;-36
2023/01/17 09:28:53;;;;;;;6.32;2.15;;;1.80;99.90;;;0.78;100.00;94457.19;5020985;28;20028;-37
2023/01/17 09:31:20;;;;;;;5.35;1.92;;;1.70;99.90;;;0.80;100.00;94460.53;5028795;28;20433;-37
2023/01/17 09:33:47;;;;;;;6.45;2.00;;;1.70;99.90;;;0.78;100.00;94461.53;5031484;28;20044;-36
2023/01/17 09:36:13;;;;;;;4.32;1.70;;;1.70;99.90;;;0.72;100.00;94455.72;5032625;28;20033;-37
2023/01/17 09:38:39;;;;;;;3.20;1.80;;;1.70;99.90;;;0.65;100.00;94443.94;5028860;28;20068;-36
2023/01/17 09:41:28;;;;;;;2.70;1.55;;;1.60;99.90;;;0.63;100.00;94443.16;5025557;28;20495;-36
2023/01/17 09:44:02;;;;;;;2.50;1.60;;;1.60;99.90;;;0.39;100.00;94411.41;5032808;28;20049;-36
2023/01/17 09:46:32;;;;;;;2.05;1.33;;;1.60;99.90;;;0.57;100.00;94441.69;5034836;28;20033;-37
2023/01/17 09:49:27;;;;;;;3.72;1.30;;;1.60;99.90;;;0.55;100.00;94445.25;5036601;28;20033;-37
2023/01/17 09:51:53;;;;;;;2.97;1.17;;;1.60;99.90;;;0.55;100.00;94438.31;5031983;28;20128;-36
2023/01/17 09:54:28;;;;;;;3.05;1.10;;;1.60;99.90;;;0.57;100.00;94438.25;5036335;28;20032;-36
2023/01/17 09:57:38;;;;;;;4.60;1.50;;;1.60;99.90;;;0.64;100.00;94438.81;5032871;28;20158;-36
2023/01/17 10:00:45;;;;;;;2.17;1.30;;;1.60;99.90;;;0.75;100.00;94440.03;5029451;28;20095;-36
2023/01/17 10:03:45;;;;;;;6.88;2.22;;;1.70;99.90;;;0.87;100.00;94435.16;5033184;28;20029;-37
2023/01/17 10:07:17;;;;;;;5.70;1.40;;;1.80;99.90;;;0.93;100.00;94437.47;5017453;28;20139;-36
2023/01/17 10:09:59;;;;;;;5.25;1.55;;;1.90;99.90;;;1.04;100.00;94432.63;5030755;28;20362;-37
2023/01/17 10:12:41;;;;;;;2.97;1.58;;;2.00;99.90;;;1.09;100.00;94440.19;5037887;28;20260;-36
2023/01/17 10:15:37;;;;;;;6.32;1.85;;;2.10;99.90;;;1.12;100.00;94438.28;5038983;28;20107;-36
2023/01/17 10:18:58;;;;;;;3.85;1.92;;;2.10;99.90;;;1.17;100.00;94438.09;5036922;28;20035;-36
2023/01/17 10:21:57;;;;;;;4.75;1.73;;;2.10;99.90;;;1.21;100.00;94439.59;5034038;28;20128;-36
2023/01/17 10:24:36;;;;;;;4.18;1.92;;;2.10;99.90;;;1.29;100.00;94427.13;5027426;28;20033;-37
2023/01/17 10:27:15;;;;;;;8.43;3.72;;;2.20;99.90;;;1.18;100.00;94411.19;5038039;28;20029;-37
2023/01/17 10:29:44;;;;;;;4.75;1.52;;;2.30;99.90;;;1.31;100.00;94438.25;5026114;28;20025;-36
2023/01/17 10:32:12;;;;;;;7.22;1.88;;;2.30;99.90;;;1.35;100.00;94436.34;5026857;28;20175;-37
2023/01/17 10:34:49;;;;;;;2.40;1.40;;;2.30;99.90;;;1.30;100.00;94433.97;5034556;28;20039;-36
2023/01/17 10:37:29;;;;;;;3.50;1.70;;;2.30;99.90;;;1.40;100.00;94433.53;5032763;28;20060;-36
2023/01/17 10:40:09;;;;;;;3.85;1.60;;;2.30;99.90;;;1.40;100.00;94424.00;5035689;28;20151;-36
2023/01/17 10:42:49;;;;;;;2.72;1.20;;;2.40;99.90;;;1.40;100.00;94421.41;5033022;28;20033;-37
2023/01/17 10:45:49;;;;;;;3.67;1.30;;;2.30;99.90;;;1.45;100.00;94422.00;5025169;28;20091;-37
2023/01/17 10:48:36;;;;;;;5.80;1.65;;;2.40;99.90;;;1.51;100.00;94426.06;5034981;28;20025;-37
2023/01/17 10:51:42;;;;;;;4.13;2.55;;;2.40;99.90;;;1.53;100.00;94419.03;5034388;28;20064;-37
2023/01/17 10:54:35;;;;;;;3.92;1.60;;;2.40;99.90;;;1.55;100.00;94422.41;5024845;28;20041;-36
2023/01/17 10:57:01;;;;;;;5.28;1.50;;;2.50;99.90;;;1.63;100.00;94406.44;5030208;28;20155;-37
2023/01/17 10:59:36;;;;;;;3.53;1.45;;;2.50;99.90;;;1.74;100.00;94398.94;5029807;28;20686;-37
2023/01/17 11:02:09;;;;;;;4.57;1.63;;;2.60;99.90;;;1.65;100.00;94382.06;5035026;28;20040;-37
2023/01/17 11:04:38;;;;;;;4.72;1.88;;;2.70;99.90;;;1.90;100.00;94405.06;5032526;28;20052;-37
2023/01/17 11:07:22;;;;;;;3.58;1.73;;;2.70;99.90;;;2.08;100.00;94415.41;5033285;28;20109;-37
2023/01/17 11:09:52;;;;;;;2.97;1.42;;;2.90;99.90;;;2.07;100.00;94398.16;5034799;28;20492;-36
2023/01/17 11:12:23;;;;;;;2.00;1.40;;;3.00;99.90;;;2.10;100.00;94403.19;5035687;28;20037;-37
2023/01/17 11:15:07;;;;;;;2.65;1.27;;;3.10;99.90;;;2.22;100.00;94412.09;5034756;28;20037;-37
2023/01/17 11:17:36;;;;;;;5.13;1.75;;;3.20;99.90;;;2.33;100.00;94394.16;5035210;28;20033;-36
2023/01/17 11:20:11;;;;;;;5.75;1.10;;;3.30;99.90;;;2.56;100.00;94400.75;5028600;28;20033;-36
2023/01/17 11:22:37;;;;;;;5.28;1.17;;;3.50;99.90;;;2.89;100.00;94399.00;5031339;28;20068;-37
2023/01/17 11:25:04;;;;;;;1.63;0.70;;;3.80;99.90;;;3.18;100.00;94376.59;5029099;28;20037;-36
2023/01/17 11:27:39;;;;;;;4.88;1.00;;;4.20;99.90;;;3.48;100.00;94368.78;5040089;28;20116;-37
2023/01/17 11:30:18;;;;;;;3.33;1.00;;;4.40;99.90;;;3.63;99.18;94357.47;5034441;28;20025;-36
2023/01/17 11:33:00;;;;;;;2.78;0.88;;;4.60;99.90;;;3.68;92.08;94354.63;5036871;28;20499;-36
2023/01/17 11:35:36;;;;;;;2.75;0.90;;;4.70;99.90;;;3.79;89.14;94348.78;5038163;28;20213;-36
2023/01/17 11:38:01;;;;;;;4.22;0.82;;;4.80;99.90;;;3.93;92.98;94348.78;5034369;28;20447;-37
2023/01/17 11:40:28;;;;;;;1.33;0.88;;;4.90;99.90;;;3.99;96.82;94348.41;5028283;28;20123;-37
2023/01/17 11:43:25;;;;;;;1.80;0.80;;;5.00;99.90;;;4.33;89.92;94362.03;5030964;28;20057;-36
2023/01/17 11:46:14;;;;;;;3.63;1.45;;;5.20;99.90;;;4.56;89.27;94365.84;5027739;28;20122;-37
2023/01/17 11:48:40;;;;;;;2.92;0.68;;;5.50;99.90;;;4.72;79.49;94355.28;5034261;28;20036;-36
2023/01/17 11:51:31;;;;;;;2.47;0.90;;;5.70;99.90;;;4.82;76.54;94347.69;5038457;28;20379;-36
2023/01/17 11:54:19;;;;;;;7.60;1.00;;;5.80;99.90;;;4.98;76.57;94347.56;5030077;28;20068;-36
2023/01/17 11:56:45;;;;;;;3.13;1.25;;;5.90;99.90;;;5.08;77.65;94338.22;5036940;28;20040;-36
2023/01/17 11:59:30;;;;;;;1.70;0.85;;;6.00;99.90;;;5.12;72.23;94334.47;5035818;28;21811;-36
2023/01/17 12:02:20;;;;;;;1.95;0.57;;;6.10;99.90;;;5.14;70.25;94318.69;5039395;28;20947;-36
2023/01/17 12:05:39;;;;;;;1.58;0.95;;;6.10;99.90;;;5.04;74.25;94320.22;5026692;28;20648;-36